Graham, NC

7:51 PM EST on February 09, 2016 (GMT -0500)
Duchy Airpark | | Change Station
CLOSE
Current Station
Personal Weather Station
Location: Saxapahaw, NC
Elevation: 676 ft
Nearby Weather Stations

Elev 676 ft 35.98 °N, 79.27 °W | Updated 24 seconds ago

Overcast
Overcast
32.5 °F
Feels Like 25 °F
N
9.0
Wind Variable Wind from West
Gusts 15.0 mph

Today
High -- | Low -- °F
--% Chance of Precip.
Yesterday
High -- | Low -- °F
Precip. -- in
Pressure 29.78 in
Visibility 10.0 miles
Clouds Overcast 7000 ft
Windchill 25 °F
Dew Point 15 °F
Humidity 48%
Rainfall 0.00 in
Snow Depth Not available.
7:11 AM 5:51 PM
Waxing Crescent, 3% visible
METAR KBUY 092354Z AUTO 26014G21KT 10SM OVC070 01/M12 A2977 RMK AO2 SLP084 T00061122 10050 20006 51037
Pressure 29.78 in
Visibility 10.0 miles
Clouds Overcast 7000 ft
Windchill 25 °F
Dew Point 15 °F
Humidity 48%
Rainfall 0.00 in
Snow Depth Not available.
7:11 AM 5:51 PM
Waxing Crescent, 3% visible
METAR KBUY 092354Z AUTO 26014G21KT 10SM OVC070 01/M12 A2977 RMK AO2 SLP084 T00061122 10050 20006 51037
Winter Storm Nacio, the third winter storm in five days to affect the Northeast, is bringing pockets of locally heavy snow to parts of the Ohio Valley, Appalachians and mid-Atlantic states Tuesday. Winter storm warnings are posted for parts of southern Pennsylvania, southern Ohio and the higher peaks of the Appalachians. Winter weather advisories, generally for lighter snow accumulations, stretch from northeast Alabama and far north Georgia to southern Connecticut and Long Island.

10-Day Weather Forecast

Almanac

Astronomy

Feb. 09, 2016 Rise Set
Actual Time
Civil Twilight
Nautical Twilight
Astronomical Twilight
Moon
Length of Visible Light
Length of Day
Tomorrow will be .
, % of the Moon is Illuminated

Today's Extremes

State Highs State Lows

Community

WunderPhotos

Upload Photos

1,891,752 photos uploaded!

WunderBlog® & News

Nearby

Air Quality

  Air Quality AQ Index Pollutant
Not available.

Snow Depth

Station Depth Elevation

Earthquake Activity

City Distance Mag. Time & Date
Minimum magnitude displayed is 2.5.

Coastal Water Temperatures

Place Temperature

Stations

Nearby Weather Stations

Station Location Temp. Windchill Dew Point Humidity Wind Precip. Elev Updated Type
                   

Watches & Warnings

There are currently no watches in effect.